createdAt,value
2022-08-09T00:02:58.284Z,16.87
2022-08-09T00:08:02.625Z,16.89
2022-08-09T00:13:17.174Z,16.90
2022-08-09T00:18:22.910Z,16.66
2022-08-09T00:23:55.965Z,16.76
2022-08-09T00:28:52.582Z,16.95
2022-08-09T00:33:58.341Z,17.04
2022-08-09T00:39:01.804Z,17.04
2022-08-09T00:44:24.971Z,17.07
2022-08-09T00:49:31.278Z,17.22
2022-08-09T00:54:36.263Z,17.23
2022-08-09T00:59:47.015Z,17.34
2022-08-09T01:05:13.977Z,17.31
2022-08-09T01:10:28.981Z,17.23
2022-08-09T01:15:52.527Z,17.08
2022-08-09T01:21:17.733Z,16.96
2022-08-09T01:26:53.654Z,16.70
2022-08-09T01:32:29.481Z,16.53
2022-08-09T01:38:06.376Z,16.31
2022-08-09T01:42:51.664Z,16.21
2022-08-09T01:47:58.171Z,16.09
2022-08-09T01:53:02.891Z,16.04
2022-08-09T01:58:24.479Z,16.02
2022-08-09T02:03:35.873Z,16.12
2022-08-09T02:08:59.045Z,16.17
2022-08-09T02:14:07.208Z,16.23
2022-08-09T02:19:12.998Z,16.24
2022-08-09T02:24:26.026Z,16.28
2022-08-09T02:29:35.050Z,16.38
2022-08-09T02:34:55.668Z,16.53
2022-08-09T02:40:03.974Z,16.64
2022-08-09T02:45:17.779Z,16.80
2022-08-09T02:50:26.957Z,16.97
2022-08-09T02:55:46.791Z,17.03
2022-08-09T03:00:58.994Z,17.05
2022-08-09T03:06:14.677Z,17.12
2022-08-09T03:12:04.465Z,17.18
2022-08-09T03:16:48.215Z,17.22
2022-08-09T03:21:53.983Z,17.12
2022-08-09T03:26:57.934Z,17.12
2022-08-09T03:32:01.886Z,17.20
2022-08-09T03:37:10.787Z,17.28
2022-08-09T03:42:30.837Z,17.17
2022-08-09T03:47:40.096Z,17.15
2022-08-09T03:52:51.216Z,17.11
2022-08-09T03:58:06.709Z,17.03
2022-08-09T04:03:24.720Z,17.13
2022-08-09T04:08:46.740Z,17.37
2022-08-09T04:14:53.002Z,17.50
2022-08-09T04:19:15.860Z,17.66
2022-08-09T04:24:38.759Z,17.92
2022-08-09T04:29:50.189Z,18.17
2022-08-09T04:34:54.424Z,18.44
2022-08-09T04:40:02.495Z,18.62
2022-08-09T04:45:07.830Z,18.79
2022-08-09T04:50:11.910Z,19.22
2022-08-09T04:55:19.249Z,19.49
2022-08-09T05:00:23.507Z,19.63
2022-08-09T05:05:32.197Z,19.90
2022-08-09T05:10:52.612Z,20.01
2022-08-09T05:15:56.769Z,20.11
2022-08-09T05:21:00.625Z,20.73
2022-08-09T05:26:05.368Z,21.81
2022-08-09T05:31:09.604Z,21.41
2022-08-09T05:36:15.578Z,21.53
2022-08-09T05:41:20.303Z,22.40
2022-08-09T05:46:23.631Z,22.65
2022-08-09T05:51:42.345Z,23.84
2022-08-09T05:56:54.984Z,25.65
2022-08-09T06:01:59.169Z,27.03
2022-08-09T06:07:02.515Z,29.42
2022-08-09T06:12:07.945Z,31.26
2022-08-09T06:17:12.152Z,29.27
2022-08-09T06:22:17.396Z,29.29
2022-08-09T06:27:22.271Z,29.07
2022-08-09T06:32:59.854Z,30.03
2022-08-09T06:38:05.501Z,27.49
2022-08-09T06:43:13.565Z,25.63
2022-08-09T06:48:16.883Z,24.74
2022-08-09T06:53:38.352Z,24.21
2022-08-09T07:00:53.979Z,24.06
2022-08-09T07:04:06.720Z,24.30
2022-08-09T07:09:55.954Z,24.30
2022-08-09T07:14:40.502Z,24.03
2022-08-09T07:19:44.575Z,24.33
2022-08-09T07:24:52.027Z,24.62
2022-08-09T07:29:58.481Z,24.86
2022-08-09T07:35:09.964Z,24.94
2022-08-09T07:40:17.468Z,24.87
2022-08-09T07:45:40.435Z,24.78
2022-08-09T07:50:52.759Z,26.27
2022-08-09T07:56:03.352Z,28.02
2022-08-09T08:01:13.772Z,27.74
2022-08-09T08:06:21.201Z,27.08
2022-08-09T08:12:10.009Z,26.38
2022-08-09T08:17:00.714Z,25.57
2022-08-09T08:22:11.308Z,24.77
2022-08-09T08:27:16.804Z,24.43
2022-08-09T08:32:28.830Z,24.52
2022-08-09T08:37:41.341Z,25.38
2022-08-09T08:42:56.433Z,25.70
2022-08-09T08:48:05.114Z,25.98
2022-08-09T08:53:12.020Z,25.87
2022-08-09T08:58:19.914Z,25.76
2022-08-09T09:03:38.006Z,25.85
2022-08-09T09:08:44.409Z,25.99
2022-08-09T09:13:59.647Z,26.55
2022-08-09T09:19:36.887Z,27.08
2022-08-09T09:24:32.479Z,26.72
2022-08-09T09:30:08.575Z,26.34
2022-08-09T09:35:10.425Z,26.65
2022-08-09T09:40:17.752Z,27.24
2022-08-09T09:45:26.387Z,27.45
2022-08-09T09:50:49.533Z,27.22
2022-08-09T09:56:04.213Z,27.05
2022-08-09T10:01:36.867Z,26.82
2022-08-09T10:06:47.268Z,27.05
2022-08-09T10:12:26.926Z,27.06
2022-08-09T10:17:50.322Z,26.30
2022-08-09T10:22:49.728Z,26.13
2022-08-09T10:27:57.925Z,26.25
2022-08-09T10:33:01.869Z,26.22
2022-08-09T10:38:33.856Z,25.94
2022-08-09T10:43:47.099Z,25.72
2022-08-09T10:49:05.787Z,25.44
2022-08-09T10:54:16.273Z,25.27
2022-08-09T10:59:55.393Z,24.94
2022-08-09T11:05:25.425Z,25.07
2022-08-09T11:11:00.842Z,24.86
2022-08-09T11:16:36.960Z,24.90
2022-08-09T11:22:04.936Z,25.04
2022-08-09T11:27:52.929Z,24.78
2022-08-09T11:33:03.637Z,24.63
2022-08-09T11:38:17.686Z,24.90
2022-08-09T11:43:41.692Z,25.13
2022-08-09T11:48:49.547Z,25.23
2022-08-09T11:54:27.970Z,25.47
2022-08-09T11:59:35.327Z,25.32
2022-08-09T12:04:41.890Z,25.07
2022-08-09T12:09:50.970Z,24.95
2022-08-09T12:15:08.081Z,24.84
2022-08-09T12:20:16.608Z,24.98
2022-08-09T12:25:31.963Z,25.10
2022-08-09T12:30:43.811Z,25.37
2022-08-09T12:35:47.914Z,25.52
2022-08-09T12:40:54.035Z,25.35
2022-08-09T12:46:00.861Z,25.72
2022-08-09T12:51:04.655Z,26.07
2022-08-09T12:56:39.292Z,25.84
2022-08-09T13:01:42.644Z,25.56
2022-08-09T13:06:50.513Z,25.28
2022-08-09T13:12:03.069Z,24.99
2022-08-09T13:17:44.089Z,24.93
2022-08-09T13:23:01.762Z,24.87
2022-08-09T13:28:24.407Z,24.75
2022-08-09T13:33:53.248Z,24.44
2022-08-09T13:39:01.133Z,24.40
2022-08-09T13:44:08.078Z,24.47
2022-08-09T13:49:18.477Z,24.62
2022-08-09T13:54:22.082Z,24.71
2022-08-09T13:59:37.153Z,24.81
2022-08-09T14:04:49.534Z,24.96
2022-08-09T14:10:03.388Z,25.18
2022-08-09T14:16:06.673Z,25.08
2022-08-09T14:20:32.958Z,25.15
2022-08-09T14:25:42.990Z,25.16
2022-08-09T14:30:46.940Z,25.17
2022-08-09T14:35:52.605Z,25.05
2022-08-09T14:41:02.816Z,24.47
2022-08-09T14:46:54.550Z,24.37
2022-08-09T14:51:45.285Z,23.97
2022-08-09T14:56:57.948Z,23.62
2022-08-09T15:02:02.641Z,23.50
2022-08-09T15:07:10.041Z,23.52
2022-08-09T15:12:13.755Z,23.57
2022-08-09T15:17:17.436Z,23.62
2022-08-09T15:22:22.583Z,23.60
2022-08-09T15:27:29.922Z,23.50
2022-08-09T15:32:51.416Z,23.33
2022-08-09T15:38:11.140Z,22.91
2022-08-09T15:43:15.703Z,22.51
2022-08-09T15:48:28.272Z,22.26
2022-08-09T15:54:07.401Z,22.00
2022-08-09T15:58:58.036Z,21.91
2022-08-09T16:04:01.551Z,21.66
2022-08-09T16:09:06.856Z,21.50
2022-08-09T16:14:10.358Z,21.36
2022-08-09T16:19:18.152Z,21.04
2022-08-09T16:24:33.405Z,21.11
2022-08-09T16:29:49.971Z,21.01
2022-08-09T16:34:58.012Z,20.96
2022-08-09T16:40:05.437Z,20.98
2022-08-09T16:45:10.436Z,20.72
2022-08-09T16:50:33.205Z,20.60
2022-08-09T16:55:59.901Z,20.60
2022-08-09T17:01:02.901Z,20.51
2022-08-09T17:06:31.304Z,20.44
2022-08-09T17:11:40.987Z,20.32
2022-08-09T17:16:45.940Z,20.22
2022-08-09T17:21:55.480Z,20.04
2022-08-09T17:27:00.623Z,19.87
2022-08-09T17:32:04.247Z,19.42
2022-08-09T17:37:07.978Z,18.97
2022-08-09T17:42:41.066Z,18.89
2022-08-09T17:47:49.042Z,18.81
2022-08-09T17:52:52.928Z,18.87
2022-08-09T17:58:02.955Z,18.78
2022-08-09T18:03:07.980Z,18.71
2022-08-09T18:08:13.294Z,18.65
2022-08-09T18:13:53.756Z,18.57
2022-08-09T18:18:43.211Z,18.46
2022-08-09T18:24:12.098Z,18.41
2022-08-09T18:30:41.836Z,18.33
2022-08-09T18:34:41.695Z,18.22
2022-08-09T18:39:48.472Z,18.13
2022-08-09T18:44:53.526Z,18.04
2022-08-09T18:50:02.943Z,17.97
2022-08-09T18:55:13.538Z,17.78
2022-08-09T19:00:20.572Z,17.64
2022-08-09T19:05:41.489Z,17.62
2022-08-09T19:10:48.006Z,17.54
2022-08-09T19:15:55.820Z,17.40
2022-08-09T19:21:00.629Z,17.15
2022-08-09T19:26:05.163Z,16.97
2022-08-09T19:31:10.314Z,16.76
2022-08-09T19:36:13.696Z,16.64
2022-08-09T19:41:33.467Z,16.55
2022-08-09T19:46:50.864Z,16.51
2022-08-09T19:51:57.514Z,16.52
2022-08-09T19:57:01.413Z,16.59
2022-08-09T20:02:18.317Z,16.62
2022-08-09T20:07:56.915Z,16.60
2022-08-09T20:12:54.195Z,16.49
2022-08-09T20:18:00.928Z,16.49
2022-08-09T20:23:04.293Z,16.42
2022-08-09T20:28:12.771Z,16.37
2022-08-09T20:33:17.867Z,16.34
2022-08-09T20:38:33.190Z,16.28
2022-08-09T20:43:45.025Z,16.23
2022-08-09T20:48:49.793Z,16.16
2022-08-09T20:53:53.789Z,16.12
2022-08-09T20:58:58.576Z,16.06
2022-08-09T21:04:07.830Z,16.00
2022-08-09T21:09:41.991Z,15.84
2022-08-09T21:14:49.792Z,15.63
2022-08-09T21:20:17.285Z,15.53
2022-08-09T21:25:37.634Z,15.53
2022-08-09T21:30:41.914Z,15.42
2022-08-09T21:35:52.471Z,15.40
2022-08-09T21:40:56.261Z,15.43
2022-08-09T21:45:59.948Z,15.41
2022-08-09T21:51:13.299Z,15.15
2022-08-09T21:56:42.921Z,14.99
2022-08-09T22:02:00.523Z,14.99
2022-08-09T22:07:06.601Z,15.10
2022-08-09T22:12:18.579Z,15.08
2022-08-09T22:17:27.854Z,14.93
2022-08-09T22:22:36.975Z,14.98
2022-08-09T22:27:40.659Z,14.98
2022-08-09T22:32:45.579Z,14.93
2022-08-09T22:38:03.365Z,14.97
2022-08-09T22:43:20.040Z,15.02
2022-08-09T22:48:35.940Z,15.02
2022-08-09T22:53:58.670Z,15.05
2022-08-09T22:59:55.858Z,15.00
2022-08-09T23:04:32.840Z,14.91
2022-08-09T23:09:38.282Z,14.89
2022-08-09T23:14:42.613Z,14.86
2022-08-09T23:20:06.883Z,14.77
2022-08-09T23:25:11.829Z,14.64
2022-08-09T23:30:15.408Z,14.56
2022-08-09T23:35:18.892Z,14.47
2022-08-09T23:40:23.678Z,14.54
2022-08-09T23:45:37.877Z,14.47
2022-08-09T23:50:41.541Z,14.46
2022-08-09T23:55:49.250Z,14.40
